createdAt,value
2022-08-20T00:02:24.802Z,6.47
2022-08-20T00:04:52.145Z,6.38
2022-08-20T00:07:19.539Z,6.47
2022-08-20T00:09:47.070Z,6.88
2022-08-20T00:12:16.776Z,5.97
2022-08-20T00:14:44.016Z,6.22
2022-08-20T00:17:11.395Z,6.47
2022-08-20T00:19:38.959Z,6.60
2022-08-20T00:22:06.549Z,6.32
2022-08-20T00:24:34.827Z,7.05
2022-08-20T00:27:02.492Z,7.25
2022-08-20T00:29:29.771Z,6.57
2022-08-20T00:31:57.186Z,8.05
2022-08-20T00:34:24.652Z,7.13
2022-08-20T00:36:51.956Z,6.50
2022-08-20T00:39:19.250Z,6.07
2022-08-20T00:41:46.528Z,6.00
2022-08-20T00:44:15.900Z,5.78
2022-08-20T00:46:44.121Z,5.93
2022-08-20T00:49:14.998Z,7.18
2022-08-20T00:51:51.319Z,5.38
2022-08-20T00:54:20.201Z,5.75
2022-08-20T00:56:49.248Z,5.40
2022-08-20T00:59:19.997Z,7.20
2022-08-20T01:01:55.414Z,6.45
2022-08-20T01:04:25.058Z,5.35
2022-08-20T01:06:52.503Z,5.43
2022-08-20T01:09:33.306Z,8.25
2022-08-20T01:12:08.130Z,5.30
2022-08-20T01:14:35.473Z,6.68
2022-08-20T01:17:05.206Z,5.82
2022-08-20T01:19:35.690Z,6.03
2022-08-20T01:22:24.171Z,6.60
2022-08-20T01:24:53.390Z,5.75
2022-08-20T01:27:22.785Z,6.18
2022-08-20T01:29:52.217Z,6.20
2022-08-20T01:32:19.542Z,6.60
2022-08-20T01:34:47.111Z,6.80
2022-08-20T01:37:14.579Z,7.82
2022-08-20T01:39:41.900Z,6.43
2022-08-20T01:42:15.422Z,12.48
2022-08-20T01:44:44.663Z,7.60
2022-08-20T01:47:19.977Z,7.03
2022-08-20T01:49:51.899Z,7.80
2022-08-20T01:52:41.630Z,7.28
2022-08-20T01:55:09.345Z,7.13
2022-08-20T01:57:37.394Z,7.80
2022-08-20T02:00:19.776Z,7.68
2022-08-20T02:02:47.567Z,7.15
2022-08-20T02:05:14.875Z,7.93
2022-08-20T02:07:42.389Z,6.90
2022-08-20T02:10:11.501Z,8.60
2022-08-20T02:12:39.975Z,6.53
2022-08-20T02:15:08.626Z,7.15
2022-08-20T02:17:36.425Z,7.30
2022-08-20T02:20:07.346Z,7.40
2022-08-20T02:22:53.183Z,7.00
2022-08-20T02:25:23.677Z,7.32
2022-08-20T02:27:51.976Z,7.47
2022-08-20T02:30:28.361Z,6.13
2022-08-20T02:32:56.656Z,7.30
2022-08-20T02:35:24.506Z,6.55
2022-08-20T02:37:52.475Z,7.10
2022-08-20T02:40:27.230Z,6.45
2022-08-20T02:42:58.564Z,6.25
2022-08-20T02:45:25.957Z,6.60
2022-08-20T02:47:54.206Z,7.10
2022-08-20T02:50:22.430Z,6.10
2022-08-20T02:52:51.579Z,6.03
2022-08-20T02:55:27.676Z,8.93
2022-08-20T02:58:00.336Z,5.90
2022-08-20T03:00:32.256Z,6.13
2022-08-20T03:03:06.123Z,6.03
2022-08-20T03:05:33.972Z,5.55
2022-08-20T03:08:01.491Z,5.90
2022-08-20T03:10:33.780Z,6.22
2022-08-20T03:13:02.768Z,6.25
2022-08-20T03:15:31.086Z,6.10
2022-08-20T03:17:58.821Z,6.03
2022-08-20T03:20:27.080Z,6.03
2022-08-20T03:22:55.491Z,5.47
2022-08-20T03:25:23.682Z,6.15
2022-08-20T03:27:54.289Z,6.55
2022-08-20T03:30:23.868Z,6.07
2022-08-20T03:32:51.136Z,6.25
2022-08-20T03:35:19.196Z,6.78
2022-08-20T03:37:48.469Z,5.80
2022-08-20T03:40:23.499Z,6.60
2022-08-20T03:42:52.658Z,6.25
2022-08-20T03:45:21.195Z,7.28
2022-08-20T03:47:48.923Z,7.20
2022-08-20T03:50:23.178Z,8.02
2022-08-20T03:52:51.837Z,7.20
2022-08-20T03:55:19.573Z,6.40
2022-08-20T03:57:48.449Z,6.30
2022-08-20T04:00:16.819Z,5.93
2022-08-20T04:02:44.133Z,6.63
2022-08-20T04:05:11.442Z,7.38
2022-08-20T04:07:40.444Z,6.78
2022-08-20T04:10:10.044Z,7.72
2022-08-20T04:12:48.644Z,7.63
2022-08-20T04:15:21.484Z,6.90
2022-08-20T04:17:53.625Z,7.43
2022-08-20T04:20:23.852Z,8.20
2022-08-20T04:22:59.297Z,8.13
2022-08-20T04:25:29.789Z,7.75
2022-08-20T04:27:58.208Z,8.90
2022-08-20T04:30:26.143Z,7.47
2022-08-20T04:32:54.417Z,7.20
2022-08-20T04:35:24.513Z,7.93
2022-08-20T04:37:58.603Z,7.63
2022-08-20T04:40:44.564Z,8.93
2022-08-20T04:43:12.354Z,8.98
2022-08-20T04:45:40.421Z,7.93
2022-08-20T04:48:11.704Z,9.73
2022-08-20T04:50:43.253Z,7.47
2022-08-20T04:53:12.287Z,9.75
2022-08-20T04:55:42.864Z,8.27
2022-08-20T04:58:12.273Z,8.48
2022-08-20T05:00:39.675Z,7.93
2022-08-20T05:03:09.920Z,8.90
2022-08-20T05:05:37.337Z,8.27
2022-08-20T05:08:05.192Z,9.23
2022-08-20T05:10:43.279Z,8.23
2022-08-20T05:13:10.886Z,8.38
2022-08-20T05:15:39.026Z,7.72
2022-08-20T05:18:07.988Z,8.27
2022-08-20T05:20:40.367Z,8.50
2022-08-20T05:23:10.175Z,8.27
2022-08-20T05:25:38.321Z,10.95
2022-08-20T05:28:09.646Z,7.97
2022-08-20T05:30:38.231Z,8.50
2022-08-20T05:33:08.937Z,8.43
2022-08-20T05:35:38.897Z,8.07
2022-08-20T05:38:15.028Z,10.35
2022-08-20T05:40:43.215Z,8.15
2022-08-20T05:43:10.864Z,9.60
2022-08-20T05:45:39.586Z,6.90
2022-08-20T05:48:11.876Z,8.07
2022-08-20T05:50:40.036Z,6.32
2022-08-20T05:53:07.331Z,6.05
2022-08-20T05:55:37.461Z,8.75
2022-08-20T05:58:05.853Z,6.03
2022-08-20T06:00:34.646Z,7.28
2022-08-20T06:03:20.706Z,7.07
2022-08-20T06:05:48.572Z,8.93
2022-08-20T06:08:16.921Z,7.07
2022-08-20T06:10:44.332Z,8.32
2022-08-20T06:13:13.855Z,7.25
2022-08-20T06:15:41.714Z,6.65
2022-08-20T06:18:10.274Z,6.60
2022-08-20T06:20:55.430Z,7.68
2022-08-20T06:23:25.265Z,8.27
2022-08-20T06:25:52.996Z,7.07
2022-08-20T06:28:20.380Z,6.72
2022-08-20T06:30:47.742Z,6.95
2022-08-20T06:33:15.051Z,7.05
2022-08-20T06:35:50.864Z,6.85
2022-08-20T06:38:18.595Z,6.85
2022-08-20T06:40:46.291Z,7.28
2022-08-20T06:43:13.729Z,6.75
2022-08-20T06:45:41.659Z,7.00
2022-08-20T06:48:11.266Z,7.10
2022-08-20T06:50:48.008Z,6.82
2022-08-20T06:53:17.553Z,6.93
2022-08-20T06:55:48.475Z,9.77
2022-08-20T06:58:35.647Z,8.40
2022-08-20T07:01:09.544Z,6.85
2022-08-20T07:03:39.186Z,6.63
2022-08-20T07:06:07.163Z,6.00
2022-08-20T07:08:34.573Z,6.85
2022-08-20T07:11:02.604Z,6.18
2022-08-20T07:13:30.416Z,6.15
2022-08-20T07:15:57.977Z,6.30
2022-08-20T07:18:28.257Z,6.32
2022-08-20T07:20:56.965Z,5.97
2022-08-20T07:23:24.996Z,6.20
2022-08-20T07:25:52.319Z,5.68
2022-08-20T07:28:21.662Z,6.88
2022-08-20T07:31:21.856Z,6.40
2022-08-20T07:33:50.658Z,6.28
2022-08-20T07:36:18.346Z,6.63
2022-08-20T07:38:47.612Z,5.90
2022-08-20T07:41:15.533Z,9.77
2022-08-20T07:43:45.228Z,8.38
2022-08-20T07:46:13.302Z,9.48
2022-08-20T07:48:41.930Z,6.32
2022-08-20T07:51:11.116Z,8.05
2022-08-20T07:53:39.943Z,5.85
2022-08-20T07:56:09.106Z,6.07
2022-08-20T07:58:37.453Z,6.80
2022-08-20T08:01:08.433Z,6.38
2022-08-20T08:03:41.104Z,5.85
2022-08-20T08:06:28.994Z,6.00
2022-08-20T08:08:59.561Z,6.47
2022-08-20T08:11:27.073Z,5.82
2022-08-20T08:13:54.677Z,5.90
2022-08-20T08:16:22.115Z,6.05
2022-08-20T08:18:51.273Z,6.75
2022-08-20T08:21:23.768Z,7.32
2022-08-20T08:23:51.174Z,5.60
2022-08-20T08:26:20.349Z,5.63
2022-08-20T08:28:47.800Z,8.88
2022-08-20T08:31:15.741Z,6.30
2022-08-20T08:33:43.277Z,8.40
2022-08-20T08:36:12.676Z,6.13
2022-08-20T08:38:43.160Z,5.32
2022-08-20T08:41:16.572Z,5.75
2022-08-20T08:43:46.750Z,4.70
2022-08-20T08:46:15.333Z,4.50
2022-08-20T08:48:44.495Z,4.50
2022-08-20T08:51:12.809Z,4.60
2022-08-20T08:53:43.013Z,4.38
2022-08-20T08:56:10.817Z,4.50
2022-08-20T08:58:38.358Z,4.78
2022-08-20T09:01:54.369Z,4.25
2022-08-20T09:04:05.979Z,3.42
2022-08-20T09:06:33.762Z,3.88
2022-08-20T09:09:03.123Z,4.70
2022-08-20T09:11:31.579Z,3.45
2022-08-20T09:13:59.099Z,3.80
2022-08-20T09:16:27.999Z,5.97
2022-08-20T09:19:00.453Z,5.63
2022-08-20T09:21:27.787Z,4.50
2022-08-20T09:23:55.336Z,3.85
2022-08-20T09:26:22.829Z,3.45
2022-08-20T09:28:56.387Z,3.63
2022-08-20T09:31:24.500Z,3.58
2022-08-20T09:33:52.846Z,3.00
2022-08-20T09:36:31.543Z,3.38
2022-08-20T09:39:00.570Z,4.03
2022-08-20T09:41:30.048Z,3.53
2022-08-20T09:43:57.856Z,3.78
2022-08-20T09:46:27.537Z,3.63
2022-08-20T09:48:55.472Z,4.07
2022-08-20T09:51:23.153Z,3.17
2022-08-20T09:53:50.506Z,2.75
2022-08-20T09:56:18.174Z,3.03
2022-08-20T09:58:48.652Z,3.22
2022-08-20T10:01:17.686Z,2.95
2022-08-20T10:03:48.176Z,3.20
2022-08-20T10:06:16.831Z,3.78
2022-08-20T10:08:44.561Z,3.90
2022-08-20T10:11:12.462Z,3.58
2022-08-20T10:13:40.146Z,2.40
2022-08-20T10:16:07.603Z,2.22
2022-08-20T10:18:35.475Z,2.40
2022-08-20T10:21:02.941Z,1.70
2022-08-20T10:23:31.350Z,2.08
2022-08-20T10:25:59.049Z,2.08
2022-08-20T10:28:26.384Z,1.98
2022-08-20T10:30:53.757Z,2.55
2022-08-20T10:33:22.289Z,2.40
2022-08-20T10:35:49.914Z,3.95
2022-08-20T10:38:18.056Z,2.22
2022-08-20T10:40:52.226Z,1.40
2022-08-20T10:43:20.126Z,1.30
2022-08-20T10:45:47.513Z,1.52
2022-08-20T10:48:19.468Z,1.30
2022-08-20T10:50:48.899Z,2.45
2022-08-20T10:53:16.276Z,1.20
2022-08-20T10:55:43.900Z,1.52
2022-08-20T10:58:13.169Z,2.33
2022-08-20T11:00:41.899Z,1.90
2022-08-20T11:03:09.416Z,1.77
2022-08-20T11:05:36.800Z,2.67
2022-08-20T11:08:05.577Z,2.15
2022-08-20T11:10:34.272Z,1.67
2022-08-20T11:13:05.889Z,1.83
2022-08-20T11:15:34.801Z,1.60
2022-08-20T11:18:02.112Z,1.60
2022-08-20T11:20:31.657Z,0.77
2022-08-20T11:22:58.979Z,0.63
2022-08-20T11:25:26.568Z,0.70
2022-08-20T11:27:55.005Z,3.95
2022-08-20T11:30:24.110Z,0.70
2022-08-20T11:32:51.621Z,1.85
2022-08-20T11:38:09.098Z,2.35
2022-08-20T11:40:36.642Z,0.70
2022-08-20T11:43:14.571Z,0.90
2022-08-20T11:45:43.183Z,1.10
2022-08-20T11:48:12.815Z,2.95
2022-08-20T11:50:40.091Z,0.98
2022-08-20T11:53:07.912Z,1.00
2022-08-20T11:55:35.921Z,0.90
2022-08-20T11:58:03.833Z,1.13
2022-08-20T12:00:33.942Z,1.00
2022-08-20T12:03:02.529Z,1.05
2022-08-20T12:05:30.429Z,0.93
2022-08-20T12:07:58.608Z,1.60
2022-08-20T12:10:27.223Z,1.33
2022-08-20T12:12:55.499Z,1.08
2022-08-20T12:15:26.875Z,0.60
2022-08-20T12:17:55.040Z,0.70
2022-08-20T12:20:22.913Z,0.75
2022-08-20T12:22:50.399Z,1.50
2022-08-20T12:25:17.879Z,3.17
2022-08-20T12:27:48.389Z,1.08
2022-08-20T12:30:17.869Z,1.80
2022-08-20T12:32:45.455Z,3.17
2022-08-20T12:35:13.826Z,2.05
2022-08-20T12:37:41.531Z,1.42
2022-08-20T12:40:10.969Z,1.60
2022-08-20T12:42:38.709Z,1.42
2022-08-20T12:45:06.575Z,1.95
2022-08-20T12:47:35.443Z,1.90
2022-08-20T12:50:05.052Z,2.17
2022-08-20T12:52:33.455Z,1.67
2022-08-20T12:55:01.120Z,1.83
2022-08-20T12:57:28.821Z,1.55
2022-08-20T12:59:57.364Z,1.92
2022-08-20T13:02:26.504Z,1.83
2022-08-20T13:04:54.691Z,1.88
2022-08-20T13:07:24.397Z,2.60
2022-08-20T13:09:51.735Z,3.92
2022-08-20T13:12:19.436Z,2.38
2022-08-20T13:14:46.721Z,2.20
2022-08-20T13:17:17.854Z,2.45
2022-08-20T13:19:45.985Z,2.00
2022-08-20T13:22:14.065Z,2.00
2022-08-20T13:24:41.830Z,2.10
2022-08-20T13:27:10.683Z,2.78
2022-08-20T13:29:38.372Z,1.38
2022-08-20T13:32:06.283Z,2.10
2022-08-20T13:34:33.582Z,2.10
2022-08-20T13:37:00.862Z,1.75
2022-08-20T13:39:28.208Z,1.10
2022-08-20T13:41:55.951Z,1.08
2022-08-20T13:44:32.961Z,1.55
2022-08-20T13:47:00.814Z,0.80
2022-08-20T13:49:29.778Z,0.95
2022-08-20T13:52:01.674Z,0.88
2022-08-20T13:54:30.436Z,1.17
2022-08-20T13:57:25.074Z,1.60
2022-08-20T13:59:53.366Z,1.52
2022-08-20T14:02:21.031Z,3.22
2022-08-20T14:04:50.888Z,1.10
2022-08-20T14:07:21.815Z,1.13
2022-08-20T14:09:51.946Z,1.38
2022-08-20T14:12:19.840Z,1.50
2022-08-20T14:14:47.570Z,1.33
2022-08-20T14:17:24.667Z,1.20
2022-08-20T14:19:56.750Z,1.23
2022-08-20T14:22:28.433Z,1.50
2022-08-20T14:24:56.794Z,1.40
2022-08-20T14:27:29.025Z,1.25
2022-08-20T14:29:59.163Z,1.25
2022-08-20T14:32:27.439Z,1.10
2022-08-20T14:34:56.655Z,1.63
2022-08-20T14:37:25.981Z,0.93
2022-08-20T14:39:54.757Z,1.00
2022-08-20T14:42:23.171Z,1.40
2022-08-20T14:44:51.228Z,1.45
2022-08-20T14:47:26.630Z,1.45
2022-08-20T14:49:54.735Z,0.93
2022-08-20T14:52:23.212Z,0.90
2022-08-20T14:54:55.724Z,1.00
2022-08-20T14:57:23.368Z,1.05
2022-08-20T14:59:53.469Z,1.10
2022-08-20T15:02:21.042Z,1.10
2022-08-20T15:04:54.025Z,1.13
2022-08-20T15:07:27.620Z,1.30
2022-08-20T15:09:55.128Z,1.80
2022-08-20T15:12:22.888Z,1.40
2022-08-20T15:14:50.528Z,1.10
2022-08-20T15:17:23.016Z,1.20
2022-08-20T15:19:51.348Z,1.20
2022-08-20T15:22:19.061Z,1.35
2022-08-20T15:24:46.658Z,1.05
2022-08-20T15:27:22.758Z,1.38
2022-08-20T15:29:50.569Z,1.45
2022-08-20T15:32:18.358Z,2.03
2022-08-20T15:34:46.069Z,1.30
2022-08-20T15:37:15.252Z,1.30
2022-08-20T15:39:43.399Z,1.40
2022-08-20T15:42:10.821Z,1.23
2022-08-20T15:44:38.701Z,1.73
2022-08-20T15:47:26.468Z,1.52
2022-08-20T15:49:56.247Z,1.40
2022-08-20T15:52:24.514Z,2.00
2022-08-20T15:54:54.947Z,1.08
2022-08-20T15:57:22.576Z,1.25
2022-08-20T16:00:14.185Z,1.20
2022-08-20T16:03:06.097Z,1.50
2022-08-20T16:05:36.532Z,1.80
2022-08-20T16:08:06.880Z,1.50
2022-08-20T16:10:37.354Z,1.40
2022-08-20T16:13:10.426Z,1.88
2022-08-20T16:15:40.984Z,1.25
2022-08-20T16:18:16.406Z,1.13
2022-08-20T16:20:47.932Z,1.10
2022-08-20T16:23:19.808Z,1.33
2022-08-20T16:26:05.866Z,1.00
2022-08-20T16:28:52.010Z,2.22
2022-08-20T16:31:23.188Z,1.30
2022-08-20T16:33:53.815Z,1.15
2022-08-20T16:36:44.153Z,1.23
2022-08-20T16:39:20.619Z,1.75
2022-08-20T16:41:50.303Z,0.80
2022-08-20T16:44:38.832Z,0.82
2022-08-20T16:47:22.935Z,1.00
2022-08-20T16:49:56.387Z,1.30
2022-08-20T16:52:24.280Z,0.80
2022-08-20T16:54:51.562Z,1.13
2022-08-20T16:57:19.929Z,1.10
2022-08-20T17:00:12.505Z,1.85
2022-08-20T17:03:02.744Z,0.80
2022-08-20T17:05:50.255Z,0.90
2022-08-20T17:08:21.207Z,0.80
2022-08-20T17:11:06.909Z,1.83
2022-08-20T17:13:37.121Z,0.77
2022-08-20T17:16:06.643Z,0.90
2022-08-20T17:18:39.167Z,1.48
2022-08-20T17:21:13.059Z,2.15
2022-08-20T17:23:55.663Z,1.05
2022-08-20T17:26:26.326Z,0.80
2022-08-20T17:28:56.081Z,0.70
2022-08-20T17:31:41.027Z,1.00
2022-08-20T17:34:19.615Z,1.63
2022-08-20T17:36:58.185Z,0.90
2022-08-20T17:39:26.892Z,1.10
2022-08-20T17:42:14.772Z,0.80
2022-08-20T17:44:48.873Z,0.90
2022-08-20T17:47:25.303Z,0.85
2022-08-20T17:50:02.279Z,2.55
2022-08-20T17:52:42.493Z,1.40
2022-08-20T17:55:12.185Z,1.33
2022-08-20T17:57:42.638Z,0.82
2022-08-20T18:00:14.826Z,0.95
2022-08-20T18:02:42.886Z,1.30
2022-08-20T18:05:12.352Z,3.35
2022-08-20T18:07:45.735Z,3.00
2022-08-20T18:10:19.421Z,2.17
2022-08-20T18:12:49.712Z,1.58
2022-08-20T18:15:27.468Z,1.38
2022-08-20T18:18:13.710Z,1.00
2022-08-20T18:21:01.159Z,6.35
2022-08-20T18:23:34.025Z,2.97
2022-08-20T18:26:04.703Z,1.42
2022-08-20T18:28:38.410Z,1.50
2022-08-20T18:31:09.103Z,1.23
2022-08-20T18:33:36.506Z,1.55
2022-08-20T18:36:13.458Z,1.38
2022-08-20T18:38:42.572Z,3.92
2022-08-20T18:41:10.173Z,1.92
2022-08-20T18:43:37.620Z,1.30
2022-08-20T18:46:12.725Z,1.20
2022-08-20T18:48:50.582Z,1.35
2022-08-20T18:51:20.955Z,1.55
2022-08-20T18:53:51.867Z,1.40
2022-08-20T18:56:30.050Z,1.30
2022-08-20T18:59:02.883Z,1.42
2022-08-20T19:01:34.876Z,1.95
2022-08-20T19:04:03.123Z,1.30
2022-08-20T19:06:30.817Z,2.28
2022-08-20T19:09:17.049Z,1.30
2022-08-20T19:11:47.986Z,1.50
2022-08-20T19:14:34.493Z,1.70
2022-08-20T19:17:11.102Z,1.33
2022-08-20T19:19:39.197Z,1.30
2022-08-20T19:22:06.626Z,1.35
2022-08-20T19:24:35.648Z,4.38
2022-08-20T19:27:09.642Z,1.75
2022-08-20T19:29:40.140Z,1.40
2022-08-20T19:32:09.457Z,2.40
2022-08-20T19:34:37.150Z,1.75
2022-08-20T19:37:27.704Z,1.80
2022-08-20T19:40:06.169Z,2.10
2022-08-20T19:42:34.634Z,1.52
2022-08-20T19:45:07.137Z,1.83
2022-08-20T19:47:38.762Z,1.70
2022-08-20T19:50:15.290Z,2.28
2022-08-20T19:52:53.905Z,1.63
2022-08-20T19:55:30.213Z,1.50
2022-08-20T19:58:02.687Z,1.88
2022-08-20T20:00:34.098Z,1.52
2022-08-20T20:03:09.450Z,1.67
2022-08-20T20:05:36.981Z,1.77
2022-08-20T20:08:04.670Z,1.52
2022-08-20T20:10:33.942Z,4.65
2022-08-20T20:13:13.121Z,1.80
2022-08-20T20:15:40.817Z,3.30
2022-08-20T20:18:09.430Z,1.83
2022-08-20T20:20:57.301Z,3.38
2022-08-20T20:23:45.570Z,5.65
2022-08-20T20:26:16.850Z,2.50
2022-08-20T20:28:46.756Z,2.17
2022-08-20T20:31:18.253Z,1.60
2022-08-20T20:33:51.951Z,2.60
2022-08-20T20:36:30.889Z,2.13
2022-08-20T20:38:59.549Z,1.70
2022-08-20T20:41:30.033Z,1.90
2022-08-20T20:44:16.270Z,2.67
2022-08-20T20:46:46.848Z,1.60
2022-08-20T20:49:24.902Z,1.83
2022-08-20T20:52:01.659Z,1.92
2022-08-20T20:54:47.772Z,1.95
2022-08-20T20:57:36.291Z,1.80
2022-08-20T21:00:08.666Z,2.25
2022-08-20T21:02:37.029Z,1.80
2022-08-20T21:05:04.416Z,2.13
2022-08-20T21:07:32.059Z,1.65
2022-08-20T21:09:59.774Z,2.40
2022-08-20T21:12:28.326Z,1.65
2022-08-20T21:14:55.911Z,1.60
2022-08-20T21:17:23.780Z,1.85
2022-08-20T21:19:52.734Z,1.65
2022-08-20T21:22:20.751Z,1.90
2022-08-20T21:24:51.507Z,1.92
2022-08-20T21:27:23.554Z,1.85
2022-08-20T21:29:51.970Z,2.10
2022-08-20T21:32:19.356Z,1.80
2022-08-20T21:34:47.017Z,2.13
2022-08-20T21:37:14.361Z,2.00
2022-08-20T21:39:41.803Z,2.15
2022-08-20T21:42:21.629Z,5.05
2022-08-20T21:44:57.093Z,2.00
2022-08-20T21:47:24.675Z,2.42
2022-08-20T21:49:52.052Z,1.90
2022-08-20T21:52:19.595Z,2.22
2022-08-20T21:54:46.872Z,1.90
2022-08-20T21:57:27.953Z,2.70
2022-08-20T21:59:57.686Z,2.38
2022-08-20T22:02:26.215Z,2.20
2022-08-20T22:04:54.174Z,1.92
2022-08-20T22:07:21.833Z,2.95
2022-08-20T22:09:49.264Z,2.08
2022-08-20T22:12:23.131Z,3.40
2022-08-20T22:14:50.958Z,3.72
2022-08-20T22:17:18.297Z,2.95
2022-08-20T22:19:45.759Z,2.58
2022-08-20T22:22:14.795Z,2.38
2022-08-20T22:24:42.472Z,2.10
2022-08-20T22:27:09.832Z,2.20
2022-08-20T22:29:37.293Z,2.00
2022-08-20T22:32:05.525Z,2.10
2022-08-20T22:34:34.528Z,2.47
2022-08-20T22:37:02.606Z,1.80
2022-08-20T22:39:29.931Z,2.10
2022-08-20T22:41:57.438Z,2.00
2022-08-20T22:44:25.196Z,1.73
2022-08-20T22:46:55.778Z,3.35
2022-08-20T22:49:24.586Z,2.08
2022-08-20T22:51:52.732Z,1.80
2022-08-20T22:54:21.251Z,2.17
2022-08-20T22:56:48.779Z,2.10
2022-08-20T22:59:18.424Z,2.30
2022-08-20T23:01:46.490Z,5.35
2022-08-20T23:04:15.097Z,2.13
2022-08-20T23:06:42.514Z,2.30
2022-08-20T23:09:12.826Z,4.40
2022-08-20T23:11:40.931Z,2.28
2022-08-20T23:14:08.245Z,2.00
2022-08-20T23:16:35.928Z,5.05
2022-08-20T23:19:03.248Z,2.67
2022-08-20T23:21:30.604Z,2.20
2022-08-20T23:23:58.149Z,2.30
2022-08-20T23:26:26.079Z,2.45
2022-08-20T23:28:53.342Z,2.10
2022-08-20T23:31:20.790Z,1.95
2022-08-20T23:33:48.898Z,2.22
2022-08-20T23:36:17.393Z,4.45
2022-08-20T23:38:44.721Z,1.80
2022-08-20T23:41:12.129Z,5.88
2022-08-20T23:43:39.760Z,2.22
2022-08-20T23:46:07.917Z,2.92
2022-08-20T23:48:36.307Z,1.88
2022-08-20T23:51:03.691Z,1.95
2022-08-20T23:53:31.416Z,2.05
2022-08-20T23:55:58.828Z,2.78
2022-08-20T23:58:26.490Z,2.72
